METAR AND TAF INFORMATION
METAR FOR LTBA
ADDS - METARS form results

(2245 UTC 28 November 2020)
Data provider http://aviationweather.gov/metar/data/
 
METAR text: LTBA 282220Z 34002KT CAVOK 06/04 Q1019 NOSIG RMK RWY23 35002KT
Conditions at: LTBA (ISTANBUL/ATATURK, TR) observed 2220 UTC 28 November 2020
Temperature: 6.0°C (43°F)
Dewpoint: 4.0°C (39°F) [RH = 87%]
Pressure (altimeter): 30.09 inches Hg (1019.0 mb)
Winds: from the NNW (340 degrees) at 2 MPH (2 knots; 1.0 m/s)
Visibility: 6 or more miles (10+ km)
Ceiling: ceiling and visibility are OK
Clouds: unknown
Weather: no significant weather observed at this time

METAR text: LTBA 282150Z 00000KT CAVOK 06/05 Q1020 NOSIG RMK RWY23 00000KT
Conditions at: LTBA (ISTANBUL/ATATURK, TR) observed 2150 UTC 28 November 2020
Temperature: 6.0°C (43°F)
Dewpoint: 5.0°C (41°F) [RH = 93%]
Pressure (altimeter): 30.12 inches Hg (1020.0 mb)
Winds: calm
Visibility: 6 or more miles (10+ km)
Ceiling: ceiling and visibility are OK
Clouds: unknown
Weather: no significant weather observed at this time

Forecast for: LTBA (ISTANBUL/ATATURK, TR)
Text: TAF LTBA 281640Z 2818/2924 VRB02KT CAVOK
Forecast period: 1800 UTC 28 November 2020 to 0000 UTC 30 November 2020
Forecast type: FROM: standard forecast or significant change
Winds: variable direction winds at 2 MPH (2 knots; 1.0 m/s)
Visibility: 6 or more miles (10+ km)
Ceiling: unknown
Clouds: missing
Weather: NSW  (no significant weather)

 AIRPORT MAP

 RUNWAY INFORMATION
Runway 05 Runway length 8530 ft Runway width 197 ft
Runway elevation 93 ft Runway displaced threshold 492 ft Runway heading 59
Runway 23 Runway length 8530 ft Runway width 197 ft
Runway elevation 90 ft Runway displaced threshold 0 ft Runway heading 239
Runway 17L Runway length 9843 ft Runway width 148 ft
Runway elevation 157 ft Runway displaced threshold 0 ft Runway heading 178
Runway 35R Runway length 9843 ft Runway width 148 ft
Runway elevation 100 ft Runway displaced threshold 0 ft Runway heading 358
Runway 17R Runway length 9843 ft Runway width 148 ft
Runway elevation 163 ft Runway displaced threshold 0 ft Runway heading 178
Runway 35L Runway length 9843 ft Runway width 148 ft
Runway elevation 102 ft Runway displaced threshold 0 ft Runway heading 358

 AIRPORT FREQUENCIES
Type APP Name YESILKOY A Frequency 120.5 MHZ
Type ATIS Name ATIS Frequency 128.2 MHZ
Type CLD Name YESILKOY D Frequency 121.7 MHZ
Type GND Name YESILKOY G Frequency 121.8 MHZ
Type RMP Name YESILKOY R Frequency 121.9 MHZ
Type TWR Name YESILKOY T Frequency 118.1 MHZ

 AIRPORT NEAR NAVIGATION AIDS
Type VORTAC Name Istanbul Frequency 112500 KHZ



Datenschutz / Privacy Policy • Impressum / Imprint • Disclaimer


Powered by Virtual Airlines Manager [v2.6.2]

Logo VAM